Green Bush, Kansas
Current Conditions -  °F | °C
As of 4:35 AM on Saturday 01 Nov 2014 (Local Time) from KPTS Reporting Station
Clear Clear  
Wind Chill: 28°   Ceiling: Unl
Heat Index: 28°   Visibility: 10mi
Dew Point: 25°   Wind: 3mph
Humidity: 88%   Direction: 50°NE
Pressure: 30.44"   Gusts: NA
Location:  37.5057°N, 94.9338°W
Report Text: KPTS 010935Z AUTO 05003KT 10SM CLR M02/M04 A3044 RMK AO2 T10211039
Loading
Personal Weather Stations






























Interactive Weather Map
Tropical Storm Tracking
New forecast layout! Learn more

10-Day Weather Forecast

Advertisements
Track Severe Weather on mobile